KMTC

Selfridge Angb Airport

Mount Clemens, Michigan, USA
TAF AMD KMTC 141945Z 1419/1523 VRB06KT 8000 BR BKN020 620802 QNH3009INS TX09/1421Z TNM02/1511Z
Issued Valid From Valid To
Dec-14 @ 19:45 UTC
(2 hours ago)
Dec-14 @ 19:00 UTC
(3 hours ago)
Dec-15 @ 23:00 UTC
(-1 days ago)
Dec-14 @ 19:00 to Dec-15 @ 23:00
TAF AMD KMTC 141945Z 1419/1523 VRB06KT 8000 BR BKN020 620802 QNH3009INS TX09/1421Z TNM02/1511Z
Wind Visibility Clouds Conditions Readings Icing
Variable at 6 knots 5.0 miles
  • Broken at 2,000' AGL
  • Mist
Altimeter 30.09" Hg
Pressure 1019 hPa
Light icing in cloud expected at 8,000' AGL extending to 10,000' AGL
TAF AMD KMTC 141945Z 1419/1523 VRB06KT 8000 BR BKN020 620802 QNH3009INS TX09/1421Z TNM02/1511Z
Issued Dec-14 @ 19:45 UTC
(2 hours ago)
Valid From Dec-14 @ 19:00 UTC
(3 hours ago)
Valid To Dec-15 @ 23:00 UTC
(-1 days ago)
Dec-14 @ 19:00 - Dec-15 @ 23:00
Wind Visibility
Variable at 6 knots 5.0 miles
Clouds
  • Broken at 2,000' AGL
Conditions
  • Mist